Terminal Aerodrome Forecast
Issued by NWS Quad Cities IA IL

Home | Current Version | Previous Version | Text Only | Print | Product List | Glossary On
Versions: 1 2 3 4 5 6 7 8 9 10 11 12 13 14 15 16 17 18 19
000
FTUS43 KDVN 021729
TAFDBQ
TAF
KDBQ 021729Z 0218/0318 21012G22KT P6SM SCT100 OVC250
     FM030000 19008KT P6SM BKN090
     FM031500 20012G22KT P6SM SCT050 BKN100=

USA.gov is the U.S. government's official web portal to all federal, state and local government web resources and services.